createdAt,value
2022-12-11T00:01:20.984Z,89.20
2022-12-11T00:03:49.236Z,89.50
2022-12-11T00:06:18.787Z,89.60
2022-12-11T00:08:50.852Z,89.80
2022-12-11T00:11:18.785Z,89.70
2022-12-11T00:13:47.563Z,89.90
2022-12-11T00:16:20.387Z,89.70
2022-12-11T00:18:51.167Z,89.80
2022-12-11T00:21:21.805Z,89.50
2022-12-11T00:23:51.552Z,89.00
2022-12-11T00:26:20.007Z,89.00
2022-12-11T00:28:47.746Z,89.00
2022-12-11T00:31:18.544Z,89.10
2022-12-11T00:33:49.471Z,89.30
2022-12-11T00:36:24.299Z,89.10
2022-12-11T00:39:00.223Z,89.50
2022-12-11T00:41:27.710Z,89.40
2022-12-11T00:44:02.694Z,89.20
2022-12-11T00:46:30.250Z,89.50
2022-12-11T00:48:59.147Z,89.70
2022-12-11T00:51:59.677Z,89.50
2022-12-11T00:54:18.755Z,89.40
2022-12-11T00:56:46.264Z,89.50
2022-12-11T00:59:16.329Z,89.70
2022-12-11T01:01:43.568Z,89.80
2022-12-11T01:04:13.218Z,89.90
2022-12-11T01:06:41.332Z,89.90
2022-12-11T01:09:32.219Z,89.70
2022-12-11T01:12:02.300Z,89.80
2022-12-11T01:14:29.745Z,90.00
2022-12-11T01:16:57.889Z,89.90
2022-12-11T01:19:28.677Z,89.80
2022-12-11T01:21:59.812Z,89.90
2022-12-11T01:24:27.126Z,90.20
2022-12-11T01:26:55.033Z,90.50
2022-12-11T01:29:22.826Z,90.20
2022-12-11T01:31:49.910Z,90.20
2022-12-11T01:34:18.395Z,90.20
2022-12-11T01:36:45.819Z,90.40
2022-12-11T01:39:22.849Z,90.00
2022-12-11T01:41:50.578Z,89.90
2022-12-11T01:44:23.739Z,89.70
2022-12-11T01:46:51.535Z,89.60
2022-12-11T01:49:20.669Z,89.60
2022-12-11T01:51:56.401Z,89.80
2022-12-11T01:54:30.941Z,90.20
2022-12-11T01:57:07.272Z,90.20
2022-12-11T01:59:40.736Z,90.00
2022-12-11T02:02:25.891Z,90.00
2022-12-11T02:05:02.115Z,89.70
2022-12-11T02:07:39.985Z,89.50
2022-12-11T02:10:08.513Z,89.60
2022-12-11T02:12:59.407Z,89.50
2022-12-11T02:15:27.211Z,89.30
2022-12-11T02:18:00.356Z,89.50
2022-12-11T02:21:03.373Z,89.30
2022-12-11T02:24:01.653Z,89.50
2022-12-11T02:26:47.210Z,89.70
2022-12-11T02:29:31.023Z,89.50
2022-12-11T02:32:46.188Z,89.60
2022-12-11T02:35:26.544Z,89.50
2022-12-11T02:38:06.043Z,89.80
2022-12-11T02:40:40.923Z,90.10
2022-12-11T02:43:13.856Z,89.90
2022-12-11T02:45:45.149Z,90.00
2022-12-11T02:48:20.764Z,89.80
2022-12-11T02:50:50.867Z,90.20
2022-12-11T02:53:22.612Z,90.20
2022-12-11T02:55:57.669Z,90.20
2022-12-11T02:58:29.725Z,90.50
2022-12-11T03:00:57.140Z,90.30
2022-12-11T03:03:30.976Z,90.50
2022-12-11T03:06:00.515Z,90.60
2022-12-11T03:08:30.372Z,90.60
2022-12-11T03:10:59.593Z,90.40
2022-12-11T03:13:36.435Z,90.40
2022-12-11T03:16:25.839Z,90.50
2022-12-11T03:19:24.708Z,90.50
2022-12-11T03:22:13.650Z,90.50
2022-12-11T03:24:48.634Z,90.60
2022-12-11T03:27:57.483Z,90.40
2022-12-11T03:30:29.140Z,90.60
2022-12-11T03:33:03.429Z,90.60
2022-12-11T03:35:39.184Z,90.80
2022-12-11T03:38:18.259Z,90.80
2022-12-11T03:40:50.936Z,90.80
2022-12-11T03:43:29.366Z,90.80
2022-12-11T03:46:08.709Z,91.00
2022-12-11T03:48:48.687Z,90.70
2022-12-11T03:51:27.122Z,90.60
2022-12-11T03:53:56.231Z,90.30
2022-12-11T03:56:27.273Z,90.60
2022-12-11T03:58:58.134Z,90.50
2022-12-11T04:01:26.597Z,90.40
2022-12-11T04:03:53.902Z,90.50
2022-12-11T04:06:22.375Z,90.30
2022-12-11T04:08:55.603Z,90.40
2022-12-11T04:11:34.831Z,90.10
2022-12-11T04:14:48.919Z,90.20
2022-12-11T04:17:36.586Z,90.50
2022-12-11T04:20:25.813Z,90.40
2022-12-11T04:23:17.823Z,90.50
2022-12-11T04:25:49.380Z,90.50
2022-12-11T04:28:20.183Z,90.70
2022-12-11T04:30:50.553Z,91.00
2022-12-11T04:33:18.071Z,91.10
2022-12-11T04:35:45.201Z,91.30
2022-12-11T04:38:12.194Z,91.20
2022-12-11T04:40:42.095Z,91.40
2022-12-11T04:43:12.099Z,91.40
2022-12-11T04:45:41.593Z,91.40
2022-12-11T04:48:21.333Z,91.30
2022-12-11T04:50:50.248Z,91.40
2022-12-11T04:53:20.460Z,91.50
2022-12-11T04:55:47.591Z,91.40
2022-12-11T04:58:23.890Z,91.50
2022-12-11T05:00:51.138Z,91.50
2022-12-11T05:03:21.360Z,91.30
2022-12-11T05:06:00.779Z,91.30
2022-12-11T05:08:28.218Z,91.10
2022-12-11T05:11:04.839Z,91.10
2022-12-11T05:13:44.579Z,91.00
2022-12-11T05:16:20.113Z,91.20
2022-12-11T05:18:50.140Z,91.30
2022-12-11T05:21:27.095Z,91.30
2022-12-11T05:23:57.705Z,91.50
2022-12-11T05:26:35.421Z,91.40
2022-12-11T05:29:07.624Z,91.60
2022-12-11T05:31:35.066Z,91.60
2022-12-11T05:34:03.548Z,91.50
2022-12-11T05:36:34.757Z,91.70
2022-12-11T05:39:03.806Z,91.50
2022-12-11T05:41:33.109Z,91.60
2022-12-11T05:44:03.721Z,91.60
2022-12-11T05:46:31.704Z,91.70
2022-12-11T05:49:01.820Z,91.60
2022-12-11T05:51:45.861Z,91.50
2022-12-11T05:54:15.954Z,91.70
2022-12-11T05:56:43.449Z,91.50
2022-12-11T05:59:14.850Z,91.60
2022-12-11T06:01:50.183Z,91.30
2022-12-11T06:04:29.527Z,91.30
2022-12-11T06:06:58.908Z,91.40
2022-12-11T06:09:29.055Z,91.40
2022-12-11T06:11:58.587Z,91.50
2022-12-11T06:14:37.799Z,91.40
2022-12-11T06:17:05.606Z,91.50
2022-12-11T06:19:38.990Z,91.30
2022-12-11T06:22:06.581Z,91.30
2022-12-11T06:24:34.442Z,91.10
2022-12-11T06:27:01.777Z,91.20
2022-12-11T06:29:30.534Z,91.20
2022-12-11T06:31:57.898Z,91.20
2022-12-11T06:34:34.624Z,91.40
2022-12-11T06:37:04.495Z,91.40
2022-12-11T06:39:33.523Z,91.70
2022-12-11T06:42:02.545Z,91.80
2022-12-11T06:44:29.935Z,91.80
2022-12-11T06:46:57.267Z,91.90
2022-12-11T06:49:24.704Z,92.20
2022-12-11T06:51:55.550Z,91.70
2022-12-11T06:54:27.626Z,91.80
2022-12-11T06:56:54.781Z,91.20
2022-12-11T06:59:28.072Z,90.90
2022-12-11T07:01:55.381Z,90.90
2022-12-11T07:04:28.400Z,90.70
2022-12-11T07:06:59.015Z,90.70
2022-12-11T07:09:31.576Z,90.50
2022-12-11T07:11:59.107Z,90.40
2022-12-11T07:14:29.289Z,90.60
2022-12-11T07:16:59.173Z,90.70
2022-12-11T07:19:34.366Z,90.40
2022-12-11T07:22:02.027Z,90.30
2022-12-11T07:24:29.120Z,90.30
2022-12-11T07:26:56.421Z,90.40
2022-12-11T07:29:24.106Z,90.30
2022-12-11T07:31:51.607Z,90.20
2022-12-11T07:34:22.066Z,90.20
2022-12-11T07:36:49.448Z,90.30
2022-12-11T07:39:19.442Z,90.50
2022-12-11T07:41:47.214Z,90.70
2022-12-11T07:44:14.416Z,90.60
2022-12-11T07:46:44.122Z,90.70
2022-12-11T07:49:13.947Z,90.90
2022-12-11T07:51:44.037Z,90.90
2022-12-11T07:54:17.368Z,90.90
2022-12-11T07:56:51.142Z,90.80
2022-12-11T07:59:21.413Z,91.00
2022-12-11T08:01:48.966Z,90.80
2022-12-11T08:04:16.755Z,90.90
2022-12-11T08:06:51.200Z,91.10
2022-12-11T08:09:23.888Z,91.20
2022-12-11T08:11:55.212Z,91.30
2022-12-11T08:14:29.424Z,90.90
2022-12-11T08:17:02.387Z,91.00
2022-12-11T08:19:35.097Z,91.00
2022-12-11T08:22:03.117Z,91.00
2022-12-11T08:24:35.164Z,91.20
2022-12-11T08:27:05.898Z,91.40
2022-12-11T08:29:33.212Z,91.40
2022-12-11T08:32:07.585Z,91.20
2022-12-11T08:34:43.905Z,91.30
2022-12-11T08:37:11.455Z,91.20
2022-12-11T08:39:42.897Z,90.90
2022-12-11T08:42:10.423Z,90.80
2022-12-11T08:44:40.145Z,90.80
2022-12-11T08:47:16.213Z,90.70
2022-12-11T08:49:47.975Z,90.80
2022-12-11T08:52:18.004Z,90.70
2022-12-11T08:54:45.237Z,90.60
2022-12-11T08:57:15.569Z,90.50
2022-12-11T08:59:43.711Z,90.30
2022-12-11T09:02:14.146Z,90.30
2022-12-11T09:04:45.660Z,90.30
2022-12-11T09:07:12.974Z,90.20
2022-12-11T09:09:53.518Z,90.10
2022-12-11T09:12:23.906Z,90.20
2022-12-11T09:14:54.010Z,90.00
2022-12-11T09:17:24.378Z,89.90
2022-12-11T09:19:51.452Z,89.90
2022-12-11T09:22:21.578Z,90.00
2022-12-11T09:24:48.632Z,89.80
2022-12-11T09:27:34.107Z,90.00
2022-12-11T09:30:04.743Z,89.90
2022-12-11T09:32:34.198Z,89.70
2022-12-11T09:35:06.086Z,89.70
2022-12-11T09:37:34.313Z,89.30
2022-12-11T09:40:07.266Z,89.40
2022-12-11T09:42:55.754Z,89.60
2022-12-11T09:45:23.370Z,89.50
2022-12-11T09:47:57.823Z,89.50
2022-12-11T09:50:34.524Z,89.30
2022-12-11T09:53:20.101Z,89.10
2022-12-11T09:56:07.786Z,89.20
2022-12-11T09:58:50.015Z,89.30
2022-12-11T10:01:37.639Z,89.40
2022-12-11T10:04:42.452Z,89.10
2022-12-11T10:07:17.835Z,89.00
2022-12-11T10:10:16.624Z,88.90
2022-12-11T10:13:13.517Z,88.80
2022-12-11T10:16:24.671Z,88.50
2022-12-11T10:18:52.709Z,88.40
2022-12-11T10:21:20.881Z,88.70
2022-12-11T10:23:59.689Z,88.70
2022-12-11T10:26:29.501Z,88.40
2022-12-11T10:29:05.150Z,88.70
2022-12-11T10:31:45.148Z,88.70
2022-12-11T10:34:36.288Z,89.00
2022-12-11T10:39:57.113Z,89.10
2022-12-11T10:42:24.864Z,88.90
2022-12-11T10:45:18.731Z,88.90
2022-12-11T10:47:46.062Z,89.10
2022-12-11T10:50:28.149Z,88.90
2022-12-11T10:52:56.589Z,89.10
2022-12-11T10:56:07.714Z,89.10
2022-12-11T10:58:41.305Z,89.00
2022-12-11T11:01:35.895Z,88.90
2022-12-11T11:04:17.751Z,88.80
2022-12-11T11:06:45.248Z,88.90
2022-12-11T11:09:34.865Z,89.20
2022-12-11T11:12:07.910Z,89.00
2022-12-11T11:14:35.754Z,88.90
2022-12-11T11:17:02.852Z,89.00
2022-12-11T11:19:38.803Z,88.80
2022-12-11T11:22:18.342Z,88.90
2022-12-11T11:24:58.629Z,89.00
2022-12-11T11:27:28.927Z,89.10
2022-12-11T11:30:20.631Z,89.40
2022-12-11T11:32:50.675Z,89.30
2022-12-11T11:35:29.651Z,89.60
2022-12-11T11:38:18.664Z,89.80
2022-12-11T11:41:08.834Z,89.80
2022-12-11T11:43:46.646Z,89.90
2022-12-11T11:46:33.722Z,89.90
2022-12-11T11:49:09.744Z,89.90
2022-12-11T11:52:12.432Z,89.80
2022-12-11T11:55:06.676Z,89.90
2022-12-11T11:57:55.436Z,90.20
2022-12-11T12:00:30.353Z,89.80
2022-12-11T12:03:12.751Z,89.70
2022-12-11T12:05:59.114Z,90.10
2022-12-11T12:08:57.778Z,90.20
2022-12-11T12:11:41.401Z,90.20
2022-12-11T12:14:51.951Z,90.10
2022-12-11T12:17:51.902Z,90.20
2022-12-11T12:20:53.989Z,90.00
2022-12-11T12:23:33.340Z,90.20
2022-12-11T12:26:07.297Z,90.20
2022-12-11T12:28:54.401Z,90.20
2022-12-11T12:31:45.694Z,90.20
2022-12-11T12:34:32.137Z,90.30
2022-12-11T12:37:33.115Z,90.30
2022-12-11T12:40:26.547Z,90.10
2022-12-11T12:43:20.687Z,90.30
2022-12-11T12:46:01.722Z,90.50
2022-12-11T12:48:56.829Z,90.60
2022-12-11T12:51:27.586Z,90.70
2022-12-11T12:54:07.767Z,90.40
2022-12-11T12:56:47.828Z,90.50
2022-12-11T12:59:29.237Z,90.60
2022-12-11T13:02:02.719Z,90.40
2022-12-11T13:05:01.738Z,90.50
2022-12-11T13:07:53.878Z,90.60
2022-12-11T13:10:36.756Z,90.80
2022-12-11T13:13:09.197Z,90.90
2022-12-11T13:18:38.159Z,91.10
2022-12-11T13:21:28.393Z,91.00
2022-12-11T13:23:58.702Z,91.20
2022-12-11T13:26:31.236Z,91.20
2022-12-11T13:28:59.325Z,91.30
2022-12-11T13:31:43.020Z,91.40
2022-12-11T13:34:23.943Z,91.50
2022-12-11T13:36:55.221Z,91.40
2022-12-11T13:39:27.699Z,91.60
2022-12-11T13:42:19.964Z,91.60
2022-12-11T13:44:49.428Z,91.80
2022-12-11T13:47:32.505Z,91.90
2022-12-11T13:50:35.157Z,92.40
2022-12-11T13:53:13.753Z,92.40
2022-12-11T13:55:47.765Z,92.60
2022-12-11T13:58:21.013Z,92.60
2022-12-11T14:01:03.089Z,92.70
2022-12-11T14:03:33.950Z,92.80
2022-12-11T14:06:03.681Z,92.90
2022-12-11T14:08:37.693Z,92.80
2022-12-11T14:11:07.515Z,92.80
2022-12-11T14:13:45.207Z,92.80
2022-12-11T14:16:23.649Z,92.80
2022-12-11T14:18:52.699Z,92.80
2022-12-11T14:21:26.679Z,92.90
2022-12-11T14:24:04.577Z,93.10
2022-12-11T14:26:39.149Z,93.20
2022-12-11T14:29:29.784Z,93.10
2022-12-11T14:32:03.368Z,93.20
2022-12-11T14:34:39.655Z,93.40
2022-12-11T14:37:08.077Z,93.40
2022-12-11T14:39:46.471Z,93.40
2022-12-11T14:42:23.267Z,93.30
2022-12-11T14:44:58.196Z,93.40
2022-12-11T14:47:40.833Z,93.40
2022-12-11T14:50:20.159Z,93.40
2022-12-11T14:52:53.382Z,93.50
2022-12-11T14:55:25.290Z,93.70
2022-12-11T14:58:00.095Z,93.80
2022-12-11T15:00:36.209Z,93.70
2022-12-11T15:03:15.001Z,93.70
2022-12-11T15:05:56.477Z,93.80
2022-12-11T15:08:38.084Z,93.70
2022-12-11T15:11:14.570Z,93.70
2022-12-11T15:14:00.014Z,93.80
2022-12-11T15:16:34.993Z,93.70
2022-12-11T15:19:03.754Z,93.60
2022-12-11T15:21:39.240Z,93.70
2022-12-11T15:24:21.825Z,93.70
2022-12-11T15:26:52.022Z,93.60
2022-12-11T15:29:39.549Z,93.60
2022-12-11T15:32:09.986Z,93.70
2022-12-11T15:34:57.793Z,93.80
2022-12-11T15:37:26.790Z,93.90
2022-12-11T15:40:02.643Z,93.80
2022-12-11T15:42:47.928Z,93.80
2022-12-11T15:45:31.686Z,93.90
2022-12-11T15:47:59.761Z,94.10
2022-12-11T15:50:29.537Z,94.20
2022-12-11T15:52:59.209Z,94.10
2022-12-11T15:55:36.225Z,94.10
2022-12-11T15:58:07.194Z,93.90
2022-12-11T16:00:36.783Z,94.00
2022-12-11T16:03:11.351Z,93.90
2022-12-11T16:05:49.358Z,94.10
2022-12-11T16:08:22.719Z,93.90
2022-12-11T16:10:55.496Z,94.00
2022-12-11T16:13:32.093Z,94.00
2022-12-11T16:16:02.070Z,94.00
2022-12-11T16:18:29.412Z,94.10
2022-12-11T16:20:56.953Z,94.00
2022-12-11T16:23:26.879Z,93.90
2022-12-11T16:25:54.294Z,93.60
2022-12-11T16:28:22.041Z,93.70
2022-12-11T16:30:50.014Z,93.80
2022-12-11T16:33:20.719Z,93.80
2022-12-11T16:35:55.264Z,93.60
2022-12-11T16:38:28.570Z,93.60
2022-12-11T16:41:07.849Z,93.70
2022-12-11T16:43:42.786Z,93.50
2022-12-11T16:46:24.110Z,93.50
2022-12-11T16:49:00.766Z,93.50
2022-12-11T16:51:28.270Z,93.30
2022-12-11T16:53:59.670Z,93.40
2022-12-11T16:56:28.039Z,93.60
2022-12-11T16:58:58.501Z,93.80
2022-12-11T17:01:33.986Z,93.90
2022-12-11T17:04:02.450Z,94.00
2022-12-11T17:06:29.575Z,94.10
2022-12-11T17:09:11.070Z,94.30
2022-12-11T17:11:45.311Z,94.30
2022-12-11T17:14:17.465Z,94.70
2022-12-11T17:16:45.299Z,94.10
2022-12-11T17:19:13.209Z,94.10
2022-12-11T17:21:46.992Z,94.30
2022-12-11T17:24:20.874Z,94.00
2022-12-11T17:26:48.203Z,94.10
2022-12-11T17:29:15.387Z,94.00
2022-12-11T17:31:42.851Z,93.90
2022-12-11T17:34:10.214Z,94.10
2022-12-11T17:36:41.583Z,94.30
2022-12-11T17:39:11.255Z,94.10
2022-12-11T17:41:39.266Z,94.30
2022-12-11T17:44:10.206Z,94.20
2022-12-11T17:46:38.986Z,93.90
2022-12-11T17:49:10.908Z,93.80
2022-12-11T17:51:38.289Z,94.30
2022-12-11T17:54:06.230Z,94.30
2022-12-11T17:56:40.906Z,94.20
2022-12-11T17:59:13.507Z,94.00
2022-12-11T18:01:40.899Z,93.90
2022-12-11T18:04:15.925Z,93.50
2022-12-11T18:06:53.847Z,93.30
2022-12-11T18:09:21.133Z,93.50
2022-12-11T18:11:48.617Z,93.70
2022-12-11T18:14:17.657Z,93.40
2022-12-11T18:16:45.075Z,93.50
2022-12-11T18:19:15.288Z,93.70
2022-12-11T18:21:50.498Z,93.80
2022-12-11T18:24:21.573Z,93.80
2022-12-11T18:26:49.394Z,94.10
2022-12-11T18:29:17.738Z,94.30
2022-12-11T18:31:47.381Z,94.30
2022-12-11T18:34:17.799Z,94.00
2022-12-11T18:36:50.583Z,94.10
2022-12-11T18:39:19.043Z,94.10
2022-12-11T18:41:58.411Z,93.90
2022-12-11T18:44:33.819Z,93.90
2022-12-11T18:47:02.715Z,93.90
2022-12-11T18:49:30.603Z,93.70
2022-12-11T18:51:58.136Z,93.70
2022-12-11T18:54:25.629Z,93.90
2022-12-11T18:56:53.199Z,94.10
2022-12-11T18:59:20.582Z,94.00
2022-12-11T19:01:55.467Z,93.80
2022-12-11T19:04:41.799Z,93.70
2022-12-11T19:07:21.101Z,93.70
2022-12-11T19:09:53.003Z,93.80
2022-12-11T19:12:27.737Z,93.80
2022-12-11T19:15:00.977Z,93.80
2022-12-11T19:17:28.827Z,93.90
2022-12-11T19:19:56.283Z,93.80
2022-12-11T19:22:23.724Z,93.90
2022-12-11T19:24:51.181Z,93.60
2022-12-11T19:27:20.090Z,93.50
2022-12-11T19:29:47.724Z,93.60
2022-12-11T19:32:22.408Z,93.30
2022-12-11T19:34:58.511Z,93.30
2022-12-11T19:37:26.097Z,93.40
2022-12-11T19:39:58.114Z,93.40
2022-12-11T19:42:26.945Z,93.60
2022-12-11T19:44:59.844Z,93.40
2022-12-11T19:47:29.333Z,93.30
2022-12-11T19:49:56.860Z,93.10
2022-12-11T19:52:26.021Z,93.10
2022-12-11T19:55:00.796Z,93.20
2022-12-11T19:57:28.740Z,93.20
2022-12-11T19:59:57.473Z,93.40
2022-12-11T20:02:34.066Z,93.30
2022-12-11T20:05:03.007Z,93.70
2022-12-11T20:07:40.112Z,93.50
2022-12-11T20:13:01.770Z,93.70
2022-12-11T20:15:34.041Z,93.70
2022-12-11T20:18:02.594Z,93.80
2022-12-11T20:20:30.556Z,93.70
2022-12-11T20:22:59.880Z,93.70
2022-12-11T20:25:33.173Z,94.10
2022-12-11T20:28:00.535Z,94.00
2022-12-11T20:30:30.556Z,94.30
2022-12-11T20:33:11.307Z,94.40
2022-12-11T20:35:42.741Z,94.40
2022-12-11T20:38:19.443Z,94.60
2022-12-11T20:40:59.909Z,94.30
2022-12-11T20:43:37.015Z,94.40
2022-12-11T20:46:07.275Z,94.70
2022-12-11T20:48:43.708Z,94.70
2022-12-11T20:51:13.427Z,94.90
2022-12-11T20:53:43.955Z,95.00
2022-12-11T20:56:13.949Z,94.90
2022-12-11T20:58:44.018Z,95.00
2022-12-11T21:01:17.118Z,94.70
2022-12-11T21:03:47.897Z,94.70
2022-12-11T21:06:33.940Z,94.60
2022-12-11T21:09:18.647Z,94.90
2022-12-11T21:11:51.710Z,94.70
2022-12-11T21:14:25.110Z,94.70
2022-12-11T21:16:52.751Z,95.00
2022-12-11T21:19:26.543Z,95.00
2022-12-11T21:22:05.490Z,95.00
2022-12-11T21:24:46.221Z,95.10
2022-12-11T21:27:35.992Z,95.10
2022-12-11T21:30:13.730Z,95.30
2022-12-11T21:32:47.337Z,95.50
2022-12-11T21:35:14.765Z,95.50
2022-12-11T21:37:50.307Z,95.70
2022-12-11T21:40:17.674Z,95.60
2022-12-11T21:42:48.287Z,95.50
2022-12-11T21:45:59.224Z,96.00
2022-12-11T21:48:14.645Z,96.00
2022-12-11T21:50:43.061Z,96.10
2022-12-11T21:53:10.168Z,96.40
2022-12-11T21:55:44.334Z,96.60
2022-12-11T21:58:12.167Z,96.30
2022-12-11T22:00:40.285Z,96.60
2022-12-11T22:03:17.050Z,96.80
2022-12-11T22:05:45.392Z,96.90
2022-12-11T22:08:15.968Z,97.10
2022-12-11T22:10:48.178Z,97.10
2022-12-11T22:13:19.027Z,96.80
2022-12-11T22:15:46.700Z,96.90
2022-12-11T22:18:19.843Z,96.90
2022-12-11T22:21:16.015Z,96.90
2022-12-11T22:23:50.700Z,96.80
2022-12-11T22:26:23.022Z,97.10
2022-12-11T22:28:50.688Z,97.20
2022-12-11T22:31:20.781Z,97.30
2022-12-11T22:33:50.742Z,97.10
2022-12-11T22:36:21.587Z,96.70
2022-12-11T22:38:49.581Z,97.00
2022-12-11T22:41:32.779Z,97.30
2022-12-11T22:44:03.602Z,96.80
2022-12-11T22:46:33.148Z,96.90
2022-12-11T22:51:43.637Z,96.50
2022-12-11T22:54:12.376Z,96.30
2022-12-11T22:56:39.482Z,96.60
2022-12-11T22:59:07.691Z,96.50
2022-12-11T23:01:35.305Z,96.80
2022-12-11T23:04:06.309Z,96.70
2022-12-11T23:06:35.406Z,96.80
2022-12-11T23:09:06.247Z,96.80
2022-12-11T23:11:37.139Z,96.60
2022-12-11T23:14:09.546Z,97.00
2022-12-11T23:16:40.170Z,97.50
2022-12-11T23:19:11.348Z,97.40
2022-12-11T23:21:39.974Z,97.20
2022-12-11T23:24:10.885Z,97.50
2022-12-11T23:26:41.110Z,97.30
2022-12-11T23:29:09.160Z,97.50
2022-12-11T23:31:40.034Z,97.40
2022-12-11T23:34:16.735Z,97.20
2022-12-11T23:36:47.883Z,96.90
2022-12-11T23:39:15.397Z,96.80
2022-12-11T23:41:42.981Z,96.80
2022-12-11T23:44:11.923Z,97.00
2022-12-11T23:46:45.184Z,96.60
2022-12-11T23:49:15.558Z,96.50
2022-12-11T23:51:42.721Z,96.40
2022-12-11T23:54:13.018Z,96.00
2022-12-11T23:56:40.726Z,96.60
2022-12-11T23:59:11.792Z,96.10
